LFAT/LTQ METAR and TAF weather

Enter ICAO airport designator
Station Type Date Time Source
LFAT METAR 2020/01/27 11:00 UTC NOAA

LFAT 271100Z AUTO 20010KT 170V240 9999 BKN015 OVC066 09/07 Q1005 NOSIG


Station Type Date Time Source
LFAT Decoded METAR 2020/01/27 11:00 UTC NOAA

Le Touquet, France (LFAT) 50-31N 001-37E 14M
Jan 27, 2020 - 06:00 AM EST / 2020.01.27 1100 UTC
Wind: from the SSW (200 degrees) at 12 MPH (10 KT) (direction variable):0
Visibility: greater than 7 mile(s):0
Sky conditions: overcast
Temperature: 48 F (9 C)
Dew Point: 44 F (7 C)
Relative Humidity: 87%
Pressure (altimeter): 29.68 in. Hg (1005 hPa)
ob: LFAT 271100Z AUTO 20010KT 170V240 9999 BKN015 OVC066 09/07 Q1005 NOSIG
cycle: 11

Station Type Date Time Source
LFAT TAF 2018/07/14 09:21 UTC NOAA

TAF TAF LFAT 140800Z 1409/1421 09004KT 8000 NSC
BECMG 1409/1411 30010KT

Example: see airport list